Startpagina
METAR-TAF:

METAR-TAF

Vliegvelden :

Albert, Frankrijk

breedte: 49-58-21N, lengte: 002-41-29E, hoogte: 111 m

Actueel weer

Dit bericht is 39 minuten geleden gemaakt, om 23:30 UTC
Wind 7 kt uit het zuidzuidoosten
Temperatuur 6°C
Vochtigheid 100%
Druk 1023 hPa
Zicht 10 km of meer
geen wolken onder 1500 m en geen cumulonimbus

METAR: LFAQ 142330Z AUTO 15007KT CAVOK 06/06 Q1023

Tijdstip: 01:09 (00:09 UTC)

Verwachting

Dit bericht is 10 uur en het 9 minuten geleden gemaakt, om 14:00 UTC
Verwachting geldig van 14 om 15 UTC tot 14 om 24 UTC
Wind 10 kt uit het zuidoosten
Zicht 10 km of meer
geen wolken onder 1500 m en geen cumulonimbus
Wijzigt naar
van 14 om 21 UTC tot 14 om 24 UTC
Zicht: 4000 m
nevel

TAF: LFAQ 141400Z 1415/1424 14010KT CAVOK BECMG 1421/1424 4000 BR

Waarnemingen en weersverwachtingen van meer dan 4000 vliegvelden (METAR en TAF).

De beschikbare stations zijn de gele en rode punten op de kaart.

Ga met uw muis naar het station om de naam te zien.

Klik dan om waarnemingen en weersverwachtingen te zien.

kaart wijzigen: klik op de groene knoppen met een zwart kruis om in te zoomen, op de groene knop met een streepje om uit te zoomen of op de groene pijlen voor aangrenzende kaarten.


METAR-TAF: